createdAt,value
2018-07-20T00:01:33.432Z,20.30
2018-07-20T00:04:01.093Z,20.30
2018-07-20T00:06:28.777Z,20.30
2018-07-20T00:08:56.436Z,20.30
2018-07-20T00:11:24.132Z,20.30
2018-07-20T00:13:52.264Z,20.30
2018-07-20T00:16:20.663Z,20.30
2018-07-20T00:18:49.365Z,20.40
2018-07-20T00:21:18.688Z,20.40
2018-07-20T00:23:46.362Z,20.30
2018-07-20T00:26:14.028Z,20.30
2018-07-20T00:28:41.688Z,20.30
2018-07-20T00:31:09.947Z,20.30
2018-07-20T00:33:38.624Z,20.30
2018-07-20T00:36:06.291Z,20.30
2018-07-20T00:38:34.252Z,20.30
2018-07-20T00:41:02.927Z,20.30
2018-07-20T00:43:30.641Z,20.30
2018-07-20T00:45:58.320Z,20.30
2018-07-20T00:48:26.048Z,20.30
2018-07-20T00:50:54.474Z,20.30
2018-07-20T00:53:23.180Z,20.30
2018-07-20T00:55:51.779Z,20.30
2018-07-20T00:58:19.492Z,20.30
2018-07-20T01:00:49.058Z,20.30
2018-07-20T01:03:18.108Z,20.30
2018-07-20T01:05:45.788Z,20.30
2018-07-20T01:08:14.508Z,20.30
2018-07-20T01:10:42.182Z,20.30
2018-07-20T01:13:10.727Z,20.30
2018-07-20T01:15:38.416Z,20.30
2018-07-20T01:18:06.181Z,20.30
2018-07-20T01:20:33.870Z,20.30
2018-07-20T01:23:01.601Z,20.30
2018-07-20T01:25:29.287Z,20.30
2018-07-20T01:27:57.004Z,20.30
2018-07-20T01:30:24.687Z,20.30
2018-07-20T01:32:52.402Z,20.30
2018-07-20T01:35:20.085Z,20.30
2018-07-20T01:37:48.924Z,20.30
2018-07-20T01:40:17.358Z,20.30
2018-07-20T01:42:49.796Z,20.30
2018-07-20T01:45:18.355Z,20.30
2018-07-20T01:47:46.028Z,20.30
2018-07-20T01:50:14.029Z,20.30
2018-07-20T01:52:41.719Z,20.30
2018-07-20T01:55:10.004Z,20.30
2018-07-20T01:57:37.688Z,20.30
2018-07-20T02:00:05.567Z,20.20
2018-07-20T02:02:33.263Z,20.20
2018-07-20T02:05:00.941Z,20.20
2018-07-20T02:07:28.612Z,20.20
2018-07-20T02:09:56.293Z,20.20
2018-07-20T02:12:23.987Z,20.20
2018-07-20T02:14:51.688Z,20.20
2018-07-20T02:17:19.370Z,20.20
2018-07-20T02:19:48.092Z,20.20
2018-07-20T02:22:15.760Z,20.20
2018-07-20T02:24:43.443Z,20.20
2018-07-20T02:27:11.168Z,20.20
2018-07-20T02:29:38.847Z,20.20
2018-07-20T02:32:06.547Z,20.20
2018-07-20T02:34:34.240Z,20.20
2018-07-20T02:37:01.916Z,20.20
2018-07-20T02:39:29.588Z,20.20
2018-07-20T02:41:57.276Z,20.20
2018-07-20T02:44:24.944Z,20.20
2018-07-20T02:46:52.651Z,20.20
2018-07-20T02:49:20.368Z,20.20
2018-07-20T02:51:48.987Z,20.20
2018-07-20T02:54:17.575Z,20.20
2018-07-20T02:56:45.248Z,20.20
2018-07-20T02:59:12.953Z,20.20
2018-07-20T03:01:41.376Z,20.20
2018-07-20T03:04:09.069Z,20.20
2018-07-20T03:06:37.682Z,20.20
2018-07-20T03:09:07.621Z,20.20
2018-07-20T03:11:35.299Z,20.20
2018-07-20T03:14:02.976Z,20.20
2018-07-20T03:16:30.657Z,20.20
2018-07-20T03:18:58.472Z,20.20
2018-07-20T03:21:26.148Z,20.20
2018-07-20T03:23:53.816Z,20.20
2018-07-20T03:26:21.504Z,20.20
2018-07-20T03:28:49.193Z,20.20
2018-07-20T03:31:17.813Z,20.20
2018-07-20T03:33:45.513Z,20.20
2018-07-20T03:36:13.441Z,20.20
2018-07-20T03:38:42.216Z,20.20
2018-07-20T03:41:11.284Z,20.20
2018-07-20T03:43:38.948Z,20.20
2018-07-20T03:46:06.639Z,20.10
2018-07-20T03:48:34.309Z,20.20
2018-07-20T03:51:03.032Z,20.10
2018-07-20T03:53:30.816Z,20.10
2018-07-20T03:55:58.516Z,20.10
2018-07-20T03:58:26.208Z,20.10
2018-07-20T04:00:53.893Z,20.10
2018-07-20T04:03:21.565Z,20.10
2018-07-20T04:05:50.695Z,20.10
2018-07-20T04:08:19.512Z,20.10
2018-07-20T04:10:48.356Z,20.10
2018-07-20T04:13:17.581Z,20.10
2018-07-20T04:15:45.299Z,20.20
2018-07-20T04:18:14.395Z,20.20
2018-07-20T04:20:42.092Z,20.20
2018-07-20T04:23:12.011Z,20.20
2018-07-20T04:25:39.827Z,20.20
2018-07-20T04:28:07.522Z,20.20
2018-07-20T04:30:36.165Z,20.10
2018-07-20T04:33:03.856Z,20.20
2018-07-20T04:35:31.547Z,20.20
2018-07-20T04:37:59.224Z,20.10
2018-07-20T04:40:26.932Z,20.10
2018-07-20T04:42:54.616Z,20.20
2018-07-20T04:45:22.322Z,20.20
2018-07-20T04:47:50.008Z,20.30
2018-07-20T04:50:18.185Z,20.30
2018-07-20T04:52:45.852Z,20.50
2018-07-20T04:55:13.560Z,20.60
2018-07-20T04:57:41.251Z,20.60
2018-07-20T05:00:08.930Z,20.60
2018-07-20T05:02:36.659Z,20.70
2018-07-20T05:05:04.338Z,20.70
2018-07-20T05:07:32.015Z,20.70
2018-07-20T05:09:59.700Z,20.70
2018-07-20T05:12:27.372Z,20.70
2018-07-20T05:14:55.050Z,20.70
2018-07-20T05:17:22.724Z,20.70
2018-07-20T05:19:50.396Z,20.70
2018-07-20T05:22:18.551Z,20.70
2018-07-20T05:24:46.237Z,20.70
2018-07-20T05:27:13.936Z,20.70
2018-07-20T05:29:41.729Z,20.70
2018-07-20T05:32:09.914Z,20.70
2018-07-20T05:34:37.591Z,20.70
2018-07-20T05:37:05.439Z,20.70
2018-07-20T05:39:34.112Z,20.70
2018-07-20T05:42:01.884Z,20.70
2018-07-20T05:44:29.560Z,20.70
2018-07-20T05:46:57.380Z,20.70
2018-07-20T05:49:25.148Z,20.70
2018-07-20T05:51:52.846Z,20.70
2018-07-20T05:54:20.516Z,20.70
2018-07-20T05:56:49.136Z,20.70
2018-07-20T05:59:16.932Z,20.70
2018-07-20T06:01:44.632Z,20.70
2018-07-20T06:04:12.316Z,20.60
2018-07-20T06:06:41.284Z,20.60
2018-07-20T06:09:10.783Z,20.60
2018-07-20T06:11:38.472Z,20.70
2018-07-20T06:14:06.294Z,20.70
2018-07-20T06:16:33.992Z,20.60
2018-07-20T06:19:01.710Z,20.60
2018-07-20T06:21:29.413Z,20.60
2018-07-20T06:23:57.151Z,20.60
2018-07-20T06:26:24.977Z,20.60
2018-07-20T06:28:52.659Z,20.60
2018-07-20T06:31:20.370Z,20.60
2018-07-20T06:33:49.204Z,20.60
2018-07-20T06:38:49.800Z,20.60
2018-07-20T06:41:18.754Z,20.60
2018-07-20T06:43:46.544Z,20.60
2018-07-20T06:46:14.247Z,20.60
2018-07-20T06:48:41.952Z,20.60
2018-07-20T06:51:10.728Z,20.60
2018-07-20T06:53:38.472Z,20.60
2018-07-20T06:56:06.351Z,20.60
2018-07-20T07:01:01.445Z,20.60
2018-07-20T07:03:29.121Z,20.60
2018-07-20T07:08:24.222Z,20.60
2018-07-20T07:10:51.902Z,20.60
2018-07-20T07:13:19.574Z,20.60
2018-07-20T07:15:48.327Z,20.60
2018-07-20T07:18:16.021Z,20.60
2018-07-20T07:20:43.708Z,20.60
2018-07-20T07:23:12.100Z,20.60
2018-07-20T07:25:40.832Z,20.60
2018-07-20T07:28:08.695Z,20.60
2018-07-20T07:30:36.392Z,20.60
2018-07-20T07:33:04.080Z,20.60
2018-07-20T07:35:31.760Z,20.60
2018-07-20T07:37:59.427Z,20.60
2018-07-20T07:40:27.116Z,20.60
2018-07-20T07:42:54.800Z,20.60
2018-07-20T07:45:22.560Z,20.60
2018-07-20T07:47:50.257Z,20.60
2018-07-20T07:50:19.032Z,20.60
2018-07-20T07:52:47.636Z,20.60
2018-07-20T07:55:15.332Z,20.60
2018-07-20T07:57:43.073Z,20.60
2018-07-20T08:00:10.788Z,20.60
2018-07-20T08:05:05.993Z,20.60
2018-07-20T08:07:33.716Z,20.60
2018-07-20T08:10:01.565Z,20.60
2018-07-20T08:12:29.188Z,20.60
2018-07-20T08:14:56.853Z,20.60
2018-07-20T08:17:24.608Z,20.60
2018-07-20T08:19:52.288Z,20.60
2018-07-20T08:22:19.966Z,20.60
2018-07-20T08:24:49.940Z,20.60
2018-07-20T08:27:18.308Z,20.60
2018-07-20T08:32:14.084Z,20.60
2018-07-20T08:34:41.901Z,20.60
2018-07-20T08:37:10.100Z,20.60
2018-07-20T08:39:37.824Z,20.60
2018-07-20T08:42:05.623Z,20.60
2018-07-20T08:44:33.326Z,20.60
2018-07-20T08:47:01.012Z,20.60
2018-07-20T08:49:28.793Z,20.70
2018-07-20T08:51:56.463Z,20.70
2018-07-20T08:54:24.128Z,20.80
2018-07-20T08:56:51.980Z,21.00
2018-07-20T08:59:19.798Z,21.10
2018-07-20T09:01:48.837Z,21.20
2018-07-20T09:04:16.536Z,21.20
2018-07-20T09:06:44.212Z,21.30
2018-07-20T09:09:11.887Z,21.30
2018-07-20T09:11:40.092Z,21.30
2018-07-20T09:14:07.852Z,21.30
2018-07-20T09:16:35.576Z,21.30
2018-07-20T09:21:30.912Z,21.30
2018-07-20T09:23:58.720Z,21.20
2018-07-20T09:26:26.381Z,21.20
2018-07-20T09:28:59.956Z,21.20
2018-07-20T09:31:27.631Z,21.20
2018-07-20T09:33:55.330Z,21.20
2018-07-20T09:36:23.012Z,21.20
2018-07-20T09:38:50.700Z,21.20
2018-07-20T09:43:48.322Z,21.20
2018-07-20T09:46:17.773Z,21.10
2018-07-20T09:48:45.499Z,21.20
2018-07-20T09:51:13.957Z,21.10
2018-07-20T09:53:43.084Z,21.10
2018-07-20T09:56:10.855Z,21.10
2018-07-20T09:58:38.544Z,21.10
2018-07-20T10:01:06.555Z,21.10
2018-07-20T10:03:34.236Z,21.10
2018-07-20T10:06:01.915Z,21.10
2018-07-20T10:08:30.659Z,21.10
2018-07-20T10:10:58.336Z,21.10
2018-07-20T10:13:26.960Z,21.10
2018-07-20T10:15:54.632Z,21.10
2018-07-20T10:18:22.588Z,21.10
2018-07-20T10:23:18.960Z,21.10
2018-07-20T10:25:46.702Z,21.20
2018-07-20T10:28:14.412Z,21.10
2018-07-20T10:30:42.129Z,21.10
2018-07-20T10:33:10.824Z,21.10
2018-07-20T10:35:38.600Z,21.10
2018-07-20T10:38:06.290Z,21.10
2018-07-20T10:40:33.988Z,21.10
2018-07-20T10:43:01.707Z,21.10
2018-07-20T10:45:29.367Z,21.10
2018-07-20T10:47:57.075Z,21.10
2018-07-20T10:50:24.924Z,21.00
2018-07-20T10:52:52.601Z,21.00
2018-07-20T10:55:20.480Z,21.10
2018-07-20T10:57:48.603Z,21.00
2018-07-20T11:00:16.281Z,21.10
2018-07-20T11:02:43.961Z,21.10
2018-07-20T11:05:13.437Z,21.10
2018-07-20T11:07:42.080Z,21.10
2018-07-20T11:10:10.920Z,21.10
2018-07-20T11:12:38.604Z,21.00
2018-07-20T11:15:06.427Z,21.00
2018-07-20T11:17:34.108Z,21.10
2018-07-20T11:20:01.917Z,21.10
2018-07-20T11:22:29.584Z,21.00
2018-07-20T11:24:57.280Z,21.00
2018-07-20T11:27:24.996Z,21.00
2018-07-20T11:29:52.693Z,21.00
2018-07-20T11:32:20.371Z,21.00
2018-07-20T11:34:49.077Z,21.00
2018-07-20T11:37:16.789Z,21.00
2018-07-20T11:39:44.712Z,21.00
2018-07-20T11:42:14.458Z,21.00
2018-07-20T11:44:42.132Z,21.00
2018-07-20T11:47:10.404Z,21.00
2018-07-20T11:49:38.132Z,20.90
2018-07-20T11:52:05.941Z,20.90
2018-07-20T11:54:33.611Z,20.90
2018-07-20T11:57:01.300Z,20.90
2018-07-20T11:59:28.987Z,20.90
2018-07-20T12:01:56.685Z,20.90
2018-07-20T12:04:24.384Z,20.90
2018-07-20T12:06:52.152Z,20.90
2018-07-20T12:09:19.860Z,20.90
2018-07-20T12:11:48.448Z,20.90
2018-07-20T12:14:16.125Z,20.90
2018-07-20T12:16:43.797Z,20.90
2018-07-20T12:19:12.433Z,21.00
2018-07-20T12:21:40.132Z,21.00
2018-07-20T12:24:07.936Z,20.90
2018-07-20T12:26:35.608Z,20.90
2018-07-20T12:29:03.429Z,20.90
2018-07-20T12:31:31.108Z,20.90
2018-07-20T12:33:58.853Z,20.90
2018-07-20T12:36:26.511Z,20.90
2018-07-20T12:38:54.184Z,20.90
2018-07-20T12:41:21.861Z,20.90
2018-07-20T12:43:49.536Z,20.90
2018-07-20T12:46:18.738Z,20.90
2018-07-20T12:48:46.525Z,20.90
2018-07-20T12:51:14.192Z,20.90
2018-07-20T12:53:41.884Z,20.80
2018-07-20T12:56:10.310Z,20.80
2018-07-20T12:58:38.009Z,20.80
2018-07-20T13:01:05.713Z,20.80
2018-07-20T13:03:33.392Z,20.80
2018-07-20T13:06:01.084Z,20.80
2018-07-20T13:08:28.747Z,20.80
2018-07-20T13:10:56.435Z,20.80
2018-07-20T13:13:24.104Z,20.80
2018-07-20T13:15:51.895Z,20.80
2018-07-20T13:18:19.573Z,20.80
2018-07-20T13:20:48.488Z,20.80
2018-07-20T13:23:16.156Z,20.80
2018-07-20T13:25:43.910Z,20.80
2018-07-20T13:28:11.622Z,20.80
2018-07-20T13:30:39.289Z,20.80
2018-07-20T13:33:06.960Z,20.80
2018-07-20T13:35:34.664Z,20.80
2018-07-20T13:38:02.332Z,20.80
2018-07-20T13:40:30.160Z,20.80
2018-07-20T13:42:57.840Z,20.80
2018-07-20T13:45:25.622Z,20.80
2018-07-20T13:47:53.301Z,20.70
2018-07-20T13:50:20.984Z,20.80
2018-07-20T13:52:50.077Z,20.70
2018-07-20T13:55:18.556Z,20.70
2018-07-20T13:57:46.244Z,20.70
2018-07-20T14:00:13.920Z,20.70
2018-07-20T14:02:41.616Z,20.70
2018-07-20T14:05:09.289Z,20.80
2018-07-20T14:07:37.184Z,20.90
2018-07-20T14:10:05.176Z,21.00
2018-07-20T14:12:32.853Z,21.00
2018-07-20T14:15:00.560Z,21.00
2018-07-20T14:17:28.259Z,21.00
2018-07-20T14:19:55.980Z,21.00
2018-07-20T14:22:23.698Z,21.00
2018-07-20T14:24:51.376Z,21.00
2018-07-20T14:27:19.717Z,21.00
2018-07-20T14:29:48.815Z,21.00
2018-07-20T14:32:16.516Z,21.00
2018-07-20T14:34:44.196Z,20.90
2018-07-20T14:37:12.864Z,20.90
2018-07-20T14:39:41.135Z,20.90
2018-07-20T14:42:08.884Z,20.90
2018-07-20T14:44:36.565Z,20.90
2018-07-20T14:47:04.249Z,20.90
2018-07-20T14:49:32.131Z,20.90
2018-07-20T14:51:59.816Z,20.90
2018-07-20T14:54:27.676Z,20.90
2018-07-20T14:56:55.377Z,20.90
2018-07-20T14:59:23.266Z,20.90
2018-07-20T15:01:51.005Z,20.90
2018-07-20T15:04:19.839Z,20.90
2018-07-20T15:06:48.735Z,20.90
2018-07-20T15:11:43.876Z,20.80
2018-07-20T15:14:12.700Z,20.80
2018-07-20T15:16:41.648Z,20.80
2018-07-20T15:19:09.332Z,20.80
2018-07-20T15:21:37.019Z,20.80
2018-07-20T15:24:04.697Z,20.80
2018-07-20T15:26:32.572Z,20.80
2018-07-20T15:29:00.288Z,20.80
2018-07-20T15:31:28.251Z,20.80
2018-07-20T15:33:56.024Z,20.80
2018-07-20T15:36:23.713Z,20.80
2018-07-20T15:38:51.415Z,20.80
2018-07-20T15:41:20.350Z,20.80
2018-07-20T15:43:48.072Z,20.80
2018-07-20T15:46:18.200Z,20.80
2018-07-20T15:48:45.901Z,20.80
2018-07-20T15:53:42.300Z,20.80
2018-07-20T15:56:10.562Z,20.80
2018-07-20T15:58:38.260Z,20.80
2018-07-20T16:01:05.927Z,20.80
2018-07-20T16:03:33.623Z,20.80
2018-07-20T16:06:01.322Z,20.80
2018-07-20T16:08:29.042Z,20.80
2018-07-20T16:10:56.792Z,20.80
2018-07-20T16:13:24.500Z,20.80
2018-07-20T16:15:52.172Z,20.70
2018-07-20T16:18:19.860Z,20.70
2018-07-20T16:23:16.162Z,20.70
2018-07-20T16:30:40.360Z,20.70
2018-07-20T16:33:08.300Z,20.70
2018-07-20T16:35:35.964Z,20.70
2018-07-20T16:38:03.777Z,20.70
2018-07-20T16:40:31.451Z,20.70
2018-07-20T16:42:59.695Z,20.70
2018-07-20T16:45:27.386Z,20.70
2018-07-20T16:47:55.044Z,20.70
2018-07-20T16:50:22.764Z,20.70
2018-07-20T16:52:51.479Z,20.70
2018-07-20T16:55:19.219Z,20.70
2018-07-20T16:57:47.715Z,20.70
2018-07-20T17:00:15.452Z,20.70
2018-07-20T17:02:43.132Z,20.70
2018-07-20T17:05:11.921Z,20.70
2018-07-20T17:07:39.604Z,20.70
2018-07-20T17:10:08.177Z,20.70
2018-07-20T17:12:35.853Z,20.70
2018-07-20T17:15:03.644Z,20.70
2018-07-20T17:17:31.317Z,20.70
2018-07-20T17:19:59.124Z,20.70
2018-07-20T17:22:26.787Z,20.70
2018-07-20T17:24:54.617Z,20.70
2018-07-20T17:27:22.304Z,20.70
2018-07-20T17:29:50.052Z,20.70
2018-07-20T17:32:19.396Z,20.70
2018-07-20T17:34:47.104Z,20.70
2018-07-20T17:37:14.776Z,20.70
2018-07-20T17:39:42.600Z,20.60
2018-07-20T17:42:10.339Z,20.60
2018-07-20T17:44:38.009Z,20.60
2018-07-20T17:47:05.686Z,20.60
2018-07-20T17:49:33.374Z,20.60
2018-07-20T17:52:01.074Z,20.70
2018-07-20T17:54:28.758Z,20.60
2018-07-20T17:56:56.612Z,20.60
2018-07-20T17:59:24.309Z,20.60
2018-07-20T18:01:51.985Z,20.60
2018-07-20T18:04:19.645Z,20.60
2018-07-20T18:06:48.033Z,20.60
2018-07-20T18:09:15.704Z,20.60
2018-07-20T18:11:43.371Z,20.60
2018-07-20T18:14:12.045Z,20.60
2018-07-20T18:16:40.531Z,20.60
2018-07-20T18:19:08.208Z,20.60
2018-07-20T18:21:35.892Z,20.60
2018-07-20T18:24:03.580Z,20.60
2018-07-20T18:26:31.256Z,20.60
2018-07-20T18:28:58.940Z,20.60
2018-07-20T18:31:26.620Z,20.60
2018-07-20T18:33:57.981Z,20.60
2018-07-20T18:36:25.612Z,20.60
2018-07-20T18:38:54.368Z,20.60
2018-07-20T18:41:22.083Z,20.60
2018-07-20T18:43:49.860Z,20.60
2018-07-20T18:46:19.788Z,20.60
2018-07-20T18:48:48.912Z,20.60
2018-07-20T18:51:16.628Z,20.60
2018-07-20T18:53:44.317Z,20.60
2018-07-20T18:56:12.805Z,20.60
2018-07-20T18:58:42.001Z,20.60
2018-07-20T19:01:09.687Z,20.60
2018-07-20T19:03:38.271Z,20.60
2018-07-20T19:06:05.962Z,20.60
2018-07-20T19:08:33.653Z,20.60
2018-07-20T19:11:01.357Z,20.60
2018-07-20T19:13:29.141Z,20.60
2018-07-20T19:15:56.772Z,20.60
2018-07-20T19:18:24.493Z,20.60
2018-07-20T19:20:52.272Z,20.60
2018-07-20T19:23:20.011Z,20.60
2018-07-20T19:25:49.115Z,20.60
2018-07-20T19:28:18.049Z,20.60
2018-07-20T19:30:45.790Z,20.60
2018-07-20T19:33:13.496Z,20.50
2018-07-20T19:35:42.292Z,20.60
2018-07-20T19:38:10.458Z,20.50
2018-07-20T19:40:38.173Z,20.50
2018-07-20T19:43:05.885Z,20.50
2018-07-20T19:45:33.593Z,20.50
2018-07-20T19:48:01.380Z,20.50
2018-07-20T19:50:29.275Z,20.50
2018-07-20T19:52:57.024Z,20.50
2018-07-20T19:55:24.709Z,20.50
2018-07-20T19:57:52.418Z,20.50
2018-07-20T20:00:20.136Z,20.50
2018-07-20T20:02:48.637Z,20.50
2018-07-20T20:05:16.365Z,20.50
2018-07-20T20:07:44.111Z,20.50
2018-07-20T20:10:12.005Z,20.50
2018-07-20T20:12:41.397Z,20.50
2018-07-20T20:15:09.401Z,20.50
2018-07-20T20:17:37.334Z,20.50
2018-07-20T20:20:14.098Z,20.50
2018-07-20T20:22:43.659Z,20.50
2018-07-20T20:25:12.251Z,20.50
2018-07-20T20:27:41.403Z,20.50
2018-07-20T20:30:09.414Z,20.40
2018-07-20T20:35:05.629Z,20.40
2018-07-20T20:37:33.390Z,20.40
2018-07-20T20:40:01.162Z,20.40
2018-07-20T20:42:28.877Z,20.40
2018-07-20T20:44:56.780Z,20.40
2018-07-20T20:47:24.669Z,20.40
2018-07-20T20:49:52.457Z,20.40
2018-07-20T20:52:20.571Z,20.40
2018-07-20T20:54:48.949Z,20.40
2018-07-20T20:57:16.631Z,20.40
2018-07-20T20:59:44.347Z,20.40
2018-07-20T21:02:13.464Z,20.40
2018-07-20T21:04:42.072Z,20.40
2018-07-20T21:07:09.764Z,20.40
2018-07-20T21:09:38.382Z,20.40
2018-07-20T21:12:06.331Z,20.40
2018-07-20T21:14:33.912Z,20.40
2018-07-20T21:17:01.593Z,20.40
2018-07-20T21:19:29.294Z,20.40
2018-07-20T21:21:56.989Z,20.40
2018-07-20T21:24:24.668Z,20.40
2018-07-20T21:26:52.340Z,20.40
2018-07-20T21:29:20.028Z,20.40
2018-07-20T21:31:49.140Z,20.40
2018-07-20T21:34:18.032Z,20.40
2018-07-20T21:36:45.749Z,20.40
2018-07-20T21:39:13.956Z,20.40
2018-07-20T21:41:43.205Z,20.30
2018-07-20T21:44:11.591Z,20.30
2018-07-20T21:46:39.508Z,20.30
2018-07-20T21:49:07.228Z,20.30
2018-07-20T21:51:34.962Z,20.30
2018-07-20T21:54:02.644Z,20.30
2018-07-20T21:56:30.430Z,20.30
2018-07-20T21:58:58.213Z,20.30
2018-07-20T22:01:25.913Z,20.30
2018-07-20T22:03:53.593Z,20.30
2018-07-20T22:06:21.303Z,20.30
2018-07-20T22:08:49.926Z,20.30
2018-07-20T22:13:47.116Z,20.30
2018-07-20T22:16:14.796Z,20.30
2018-07-20T22:18:42.479Z,20.30
2018-07-20T22:21:10.159Z,20.30
2018-07-20T22:23:37.837Z,20.30
2018-07-20T22:26:05.525Z,20.30
2018-07-20T22:28:33.209Z,20.30
2018-07-20T22:31:00.872Z,20.30
2018-07-20T22:33:28.539Z,20.30
2018-07-20T22:35:56.400Z,20.30
2018-07-20T22:38:24.067Z,20.30
2018-07-20T22:40:51.728Z,20.30
2018-07-20T22:43:19.405Z,20.30
2018-07-20T22:48:15.888Z,20.30
2018-07-20T22:50:43.559Z,20.30
2018-07-20T22:53:12.267Z,20.30
2018-07-20T22:55:41.054Z,20.30
2018-07-20T22:58:08.720Z,20.30
2018-07-20T23:00:36.395Z,20.20
2018-07-20T23:03:04.060Z,20.20
2018-07-20T23:05:31.740Z,20.20
2018-07-20T23:07:59.419Z,20.20
2018-07-20T23:10:27.092Z,20.20
2018-07-20T23:12:54.772Z,20.20
2018-07-20T23:15:22.444Z,20.20
2018-07-20T23:17:50.126Z,20.20
2018-07-20T23:20:18.784Z,20.20
2018-07-20T23:22:46.464Z,20.20
2018-07-20T23:25:14.137Z,20.20
2018-07-20T23:27:42.879Z,20.20
2018-07-20T23:30:10.579Z,20.20
2018-07-20T23:32:38.243Z,20.20
2018-07-20T23:35:05.957Z,20.20
2018-07-20T23:37:33.678Z,20.20
2018-07-20T23:40:01.386Z,20.20
2018-07-20T23:42:29.093Z,20.20
2018-07-20T23:44:56.800Z,20.20
2018-07-20T23:47:24.509Z,20.20
2018-07-20T23:49:52.419Z,20.20
2018-07-20T23:52:20.101Z,20.20
2018-07-20T23:54:48.597Z,20.20
2018-07-20T23:57:16.290Z,20.20
2018-07-20T23:59:44.036Z,20.20
